createdAt,value
2023-04-15T00:01:33.846Z,94998.72
2023-04-15T00:04:01.883Z,94997.50
2023-04-15T00:06:29.542Z,94969.31
2023-04-15T00:08:57.098Z,94986.09
2023-04-15T00:11:25.070Z,94995.53
2023-04-15T00:13:54.373Z,95002.06
2023-04-15T00:16:21.951Z,94995.19
2023-04-15T00:18:49.432Z,94988.06
2023-04-15T00:21:17.128Z,94993.56
2023-04-15T00:23:45.092Z,94984.19
2023-04-15T00:26:13.287Z,94956.84
2023-04-15T00:28:40.898Z,94937.94
2023-04-15T00:31:09.900Z,94964.63
2023-04-15T00:33:37.692Z,94984.25
2023-04-15T00:36:05.935Z,94990.00
2023-04-15T00:38:33.586Z,94969.16
2023-04-15T00:41:01.183Z,94969.72
2023-04-15T00:43:29.596Z,94978.19
2023-04-15T00:45:59.787Z,94982.69
2023-04-15T00:48:29.311Z,94915.22
2023-04-15T00:50:56.766Z,94966.59
2023-04-15T00:53:24.405Z,94946.53
2023-04-15T00:55:52.092Z,94976.28
2023-04-15T00:58:20.013Z,94976.09
2023-04-15T01:00:47.753Z,94975.69
2023-04-15T01:03:15.511Z,94960.72
2023-04-15T01:05:44.701Z,94976.25
2023-04-15T01:08:12.275Z,94959.28
2023-04-15T01:10:40.403Z,94963.72
2023-04-15T01:13:08.170Z,94937.38
2023-04-15T01:15:37.103Z,94959.25
2023-04-15T01:18:04.843Z,94951.81
2023-04-15T01:20:32.770Z,94949.91
2023-04-15T01:23:02.167Z,94958.41
2023-04-15T01:25:34.697Z,94961.81
2023-04-15T01:28:03.199Z,94947.09
2023-04-15T01:30:34.600Z,94969.69
2023-04-15T01:33:02.639Z,94956.63
2023-04-15T01:35:30.248Z,94961.72
2023-04-15T01:38:05.176Z,94962.72
2023-04-15T01:40:34.211Z,94959.06
2023-04-15T01:43:02.090Z,94947.28
2023-04-15T01:45:29.855Z,94925.81
2023-04-15T01:47:57.537Z,94953.88
2023-04-15T01:50:25.750Z,94943.97
2023-04-15T01:52:53.449Z,94935.38
2023-04-15T01:55:21.745Z,94954.88
2023-04-15T01:57:50.570Z,94940.75
2023-04-15T02:00:18.167Z,94950.16
2023-04-15T02:02:45.974Z,94948.44
2023-04-15T02:05:13.503Z,94947.44
2023-04-15T02:07:40.983Z,94954.69
2023-04-15T02:10:09.303Z,94947.25
2023-04-15T02:12:36.851Z,94944.34
2023-04-15T02:15:07.131Z,94953.53
2023-04-15T02:17:36.342Z,94950.56
2023-04-15T02:20:05.839Z,94953.38
2023-04-15T02:22:33.421Z,94941.38
2023-04-15T02:25:01.024Z,94923.19
2023-04-15T02:27:29.182Z,94947.94
2023-04-15T02:29:56.818Z,94930.69
2023-04-15T02:32:26.225Z,94943.03
2023-04-15T02:34:53.886Z,94954.75
2023-04-15T02:37:21.917Z,94948.53
2023-04-15T02:39:49.901Z,94956.56
2023-04-15T02:42:17.484Z,94963.72
2023-04-15T02:44:45.383Z,94945.09
2023-04-15T02:47:12.882Z,94963.16
2023-04-15T02:49:41.772Z,94956.88
2023-04-15T02:52:09.934Z,94969.06
2023-04-15T02:54:37.405Z,94953.72
2023-04-15T02:57:06.665Z,94974.16
2023-04-15T02:59:34.226Z,94974.94
2023-04-15T03:02:01.760Z,94975.72
2023-04-15T03:04:30.099Z,94961.53
2023-04-15T03:06:59.008Z,94946.28
2023-04-15T03:09:26.535Z,94969.94
2023-04-15T03:11:54.859Z,94959.13
2023-04-15T03:14:22.818Z,94965.22
2023-04-15T03:16:51.819Z,94963.78
2023-04-15T03:19:19.418Z,94977.72
2023-04-15T03:21:46.967Z,94958.34
2023-04-15T03:24:15.860Z,94974.88
2023-04-15T03:26:43.417Z,94971.91
2023-04-15T03:29:11.180Z,94977.59
2023-04-15T03:31:38.699Z,94961.72
2023-04-15T03:34:06.557Z,94973.28
2023-04-15T03:36:34.132Z,94980.78
2023-04-15T03:39:02.551Z,94963.09
2023-04-15T03:41:32.764Z,94969.97
2023-04-15T03:44:00.472Z,94977.06
2023-04-15T03:46:28.110Z,94992.38
2023-04-15T03:48:56.404Z,94975.09
2023-04-15T03:51:24.246Z,94951.75
2023-04-15T03:53:51.792Z,94970.63
2023-04-15T03:56:19.372Z,94989.47
2023-04-15T03:58:48.267Z,94961.56
2023-04-15T04:01:16.457Z,94987.69
2023-04-15T04:03:44.312Z,94993.03
2023-04-15T04:06:12.736Z,94988.72
2023-04-15T04:08:40.540Z,94995.38
2023-04-15T04:11:08.398Z,94940.41
2023-04-15T04:13:35.950Z,94947.06
2023-04-15T04:16:05.580Z,94972.78
2023-04-15T04:18:33.491Z,94995.75
2023-04-15T04:21:02.200Z,94949.81
2023-04-15T04:23:29.975Z,94985.38
2023-04-15T04:25:57.614Z,95004.59
2023-04-15T04:28:25.157Z,95000.72
2023-04-15T04:30:52.700Z,95006.22
2023-04-15T04:33:21.650Z,94996.56
2023-04-15T04:35:49.157Z,95012.13
2023-04-15T04:38:16.740Z,94990.31
2023-04-15T04:40:44.480Z,95008.19
2023-04-15T04:43:12.198Z,95012.91
2023-04-15T04:45:39.779Z,95009.94
2023-04-15T04:48:08.728Z,95008.97
2023-04-15T04:50:38.251Z,95003.47
2023-04-15T04:53:07.304Z,95024.50
2023-04-15T04:55:36.803Z,95012.31
2023-04-15T04:58:04.648Z,95008.38
2023-04-15T05:00:32.520Z,95021.94
2023-04-15T05:03:00.561Z,95022.31
2023-04-15T05:05:28.331Z,95003.09
2023-04-15T05:07:57.341Z,95031.75
2023-04-15T05:10:24.870Z,95006.16
2023-04-15T05:12:52.842Z,95025.00
2023-04-15T05:15:20.466Z,95028.97
2023-04-15T05:17:47.997Z,95038.75
2023-04-15T05:20:15.614Z,95030.06
2023-04-15T05:22:43.384Z,95028.47
2023-04-15T05:25:12.747Z,95008.41
2023-04-15T05:27:40.466Z,95036.06
2023-04-15T05:30:09.345Z,95048.63
2023-04-15T05:32:37.564Z,95038.91
2023-04-15T05:35:05.554Z,95032.41
2023-04-15T05:37:33.120Z,95044.28
2023-04-15T05:40:00.929Z,95036.56
2023-04-15T05:42:30.362Z,95046.94
2023-04-15T05:44:58.249Z,95057.66
2023-04-15T05:47:25.808Z,95034.97
2023-04-15T05:49:53.305Z,95043.13
2023-04-15T05:52:21.226Z,95049.84
2023-04-15T05:54:48.720Z,95058.06
2023-04-15T05:57:16.152Z,95053.44
2023-04-15T05:59:44.962Z,95055.44
2023-04-15T06:02:13.387Z,95061.75
2023-04-15T06:04:41.073Z,95034.25
2023-04-15T06:07:08.713Z,95044.75
2023-04-15T06:09:36.752Z,95041.31
2023-04-15T06:12:04.680Z,95058.69
2023-04-15T06:14:32.242Z,95060.09
2023-04-15T06:17:01.099Z,95048.44
2023-04-15T06:19:28.538Z,95052.53
2023-04-15T06:21:56.154Z,95063.34
2023-04-15T06:24:23.677Z,95059.56
2023-04-15T06:26:51.163Z,95068.66
2023-04-15T06:29:18.695Z,95069.44
2023-04-15T06:31:48.017Z,95071.63
2023-04-15T06:34:16.987Z,95066.63
2023-04-15T06:36:44.449Z,95073.31
2023-04-15T06:39:12.192Z,95073.78
2023-04-15T06:41:39.797Z,95073.38
2023-04-15T06:44:08.046Z,95073.78
2023-04-15T06:46:35.515Z,95080.94
2023-04-15T06:49:03.769Z,95066.25
2023-04-15T06:51:32.817Z,95084.25
2023-04-15T06:54:00.280Z,95088.81
2023-04-15T06:56:27.701Z,95086.94
2023-04-15T06:58:55.145Z,95089.81
2023-04-15T07:01:23.153Z,95081.84
2023-04-15T07:03:50.686Z,95093.34
2023-04-15T07:06:18.246Z,95090.75
2023-04-15T07:08:47.018Z,95089.94
2023-04-15T07:11:15.069Z,95085.44
2023-04-15T07:13:42.517Z,95100.28
2023-04-15T07:16:09.960Z,95106.91
2023-04-15T07:18:37.520Z,95103.22
2023-04-15T07:21:05.507Z,95111.97
2023-04-15T07:23:32.984Z,95114.59
2023-04-15T07:26:02.275Z,95116.66
2023-04-15T07:28:29.709Z,95117.00
2023-04-15T07:30:57.990Z,95116.81
2023-04-15T07:33:25.485Z,95132.31
2023-04-15T07:35:53.070Z,95134.34
2023-04-15T07:38:20.589Z,95136.28
2023-04-15T07:40:48.331Z,95141.13
2023-04-15T07:43:17.382Z,95156.84
2023-04-15T07:45:44.982Z,95128.13
2023-04-15T07:48:12.501Z,95131.72
2023-04-15T07:50:40.249Z,95146.41
2023-04-15T07:53:08.180Z,95168.06
2023-04-15T07:55:35.710Z,95169.41
2023-04-15T07:58:03.131Z,95173.03
2023-04-15T08:00:32.107Z,95184.91
2023-04-15T08:02:59.827Z,95173.41
2023-04-15T08:05:27.476Z,95181.53
2023-04-15T08:07:54.910Z,95172.63
2023-04-15T08:10:22.622Z,95192.31
2023-04-15T08:12:50.662Z,95178.91
2023-04-15T08:15:18.311Z,95194.78
2023-04-15T08:17:47.179Z,95175.47
2023-04-15T08:20:14.649Z,95207.56
2023-04-15T08:22:42.541Z,95199.00
2023-04-15T08:25:10.675Z,95195.22
2023-04-15T08:27:38.291Z,95175.81
2023-04-15T08:30:07.289Z,95205.75
2023-04-15T08:32:34.809Z,95179.44
2023-04-15T08:35:03.787Z,95207.88
2023-04-15T08:37:31.267Z,95217.84
2023-04-15T08:39:58.864Z,95214.91
2023-04-15T08:42:33.469Z,95218.53
2023-04-15T08:45:02.362Z,95222.63
2023-04-15T08:47:32.768Z,95229.72
2023-04-15T08:50:00.680Z,95226.28
2023-04-15T08:52:32.256Z,95206.84
2023-04-15T08:55:02.601Z,95220.81
2023-04-15T08:57:30.633Z,95227.31
2023-04-15T08:59:58.223Z,95216.91
2023-04-15T09:02:27.607Z,95236.75
2023-04-15T09:04:55.318Z,95236.53
2023-04-15T09:07:23.796Z,95245.41
2023-04-15T09:09:52.840Z,95231.69
2023-04-15T09:12:20.294Z,95243.41
2023-04-15T09:14:48.197Z,95248.88
2023-04-15T09:17:20.449Z,95264.75
2023-04-15T09:19:48.245Z,95261.38
2023-04-15T09:22:16.550Z,95271.53
2023-04-15T09:24:44.041Z,95274.13
2023-04-15T09:27:18.318Z,95277.50
2023-04-15T09:29:45.986Z,95277.78
2023-04-15T09:32:14.855Z,95283.22
2023-04-15T09:34:44.395Z,95249.66
2023-04-15T09:37:24.236Z,95269.19
2023-04-15T09:39:56.324Z,95283.50
2023-04-15T09:42:26.601Z,95251.69
2023-04-15T09:44:54.059Z,95279.34
2023-04-15T09:47:31.541Z,95280.38
2023-04-15T09:49:59.923Z,95289.75
2023-04-15T09:52:28.548Z,95293.69
2023-04-15T09:54:58.396Z,95291.06
2023-04-15T09:57:35.597Z,95297.56
2023-04-15T10:00:03.696Z,95294.19
2023-04-15T10:02:31.963Z,95303.53
2023-04-15T10:05:00.685Z,95315.53
2023-04-15T10:07:28.632Z,95310.28
2023-04-15T10:09:57.862Z,95322.81
2023-04-15T10:12:27.172Z,95317.34
2023-04-15T10:15:00.124Z,95322.84
2023-04-15T10:17:31.738Z,95309.03
2023-04-15T10:20:01.631Z,95330.34
2023-04-15T10:22:30.029Z,95320.72
2023-04-15T10:24:57.997Z,95309.72
2023-04-15T10:27:28.064Z,95320.19
2023-04-15T10:29:55.733Z,95332.44
2023-04-15T10:32:24.886Z,95329.31
2023-04-15T10:34:54.636Z,95335.81
2023-04-15T10:37:23.277Z,95318.63
2023-04-15T10:39:51.006Z,95336.84
2023-04-15T10:42:20.135Z,95341.53
2023-04-15T10:44:52.821Z,95349.94
2023-04-15T10:47:22.230Z,95349.63
2023-04-15T10:49:51.110Z,95353.03
2023-04-15T10:52:23.943Z,95347.34
2023-04-15T10:54:51.516Z,95340.78
2023-04-15T10:57:23.646Z,95335.06
2023-04-15T11:00:12.843Z,95350.50
2023-04-15T11:02:45.824Z,95347.88
2023-04-15T11:05:14.308Z,95344.75
2023-04-15T11:07:49.541Z,95349.44
2023-04-15T11:10:53.904Z,95353.09
2023-04-15T11:13:25.130Z,95344.72
2023-04-15T11:15:58.356Z,95332.16
2023-04-15T11:18:28.195Z,95351.22
2023-04-15T11:20:57.876Z,95368.69
2023-04-15T11:23:34.000Z,95368.44
2023-04-15T11:26:02.418Z,95364.25
2023-04-15T11:28:32.025Z,95381.19
2023-04-15T11:31:08.452Z,95359.88
2023-04-15T11:33:36.192Z,95376.03
2023-04-15T11:36:04.487Z,95375.25
2023-04-15T11:38:32.381Z,95377.84
2023-04-15T11:41:00.369Z,95393.75
2023-04-15T11:43:27.869Z,95384.38
2023-04-15T11:45:56.946Z,95391.91
2023-04-15T11:48:27.677Z,95389.31
2023-04-15T11:50:56.948Z,95388.25
2023-04-15T11:53:25.322Z,95391.69
2023-04-15T11:55:54.162Z,95398.97
2023-04-15T11:58:24.174Z,95388.03
2023-04-15T12:00:53.962Z,95406.28
2023-04-15T12:03:26.570Z,95413.28
2023-04-15T12:06:21.957Z,95405.97
2023-04-15T12:08:50.985Z,95410.41
2023-04-15T12:11:18.673Z,95388.78
2023-04-15T12:13:47.155Z,95405.16
2023-04-15T12:16:17.468Z,95402.59
2023-04-15T12:18:48.171Z,95404.16
2023-04-15T12:21:15.807Z,95425.56
2023-04-15T12:23:49.672Z,95433.41
2023-04-15T12:26:17.416Z,95424.78
2023-04-15T12:28:45.059Z,95425.53
2023-04-15T12:31:13.447Z,95436.25
2023-04-15T12:33:41.074Z,95433.88
2023-04-15T12:36:10.248Z,95437.78
2023-04-15T12:38:37.760Z,95422.97
2023-04-15T12:41:05.290Z,95449.28
2023-04-15T12:43:32.706Z,95469.34
2023-04-15T12:46:00.157Z,95484.72
2023-04-15T12:48:27.607Z,95455.53
2023-04-15T12:50:55.049Z,95443.47
2023-04-15T12:53:23.876Z,95466.44
2023-04-15T12:55:51.501Z,95476.09
2023-04-15T12:58:19.467Z,95478.91
2023-04-15T13:00:47.334Z,95459.44
2023-04-15T13:03:15.815Z,95460.97
2023-04-15T13:05:44.047Z,95457.03
2023-04-15T13:08:11.576Z,95484.97
2023-04-15T13:10:42.310Z,95483.69
2023-04-15T13:13:10.028Z,95484.69
2023-04-15T13:15:37.970Z,95498.19
2023-04-15T13:18:07.639Z,95491.19
2023-04-15T13:20:35.320Z,95485.47
2023-04-15T13:23:02.958Z,95502.97
2023-04-15T13:25:30.700Z,95511.38
2023-04-15T13:28:01.126Z,95509.56
2023-04-15T13:30:28.816Z,95505.09
2023-04-15T13:32:56.283Z,95520.72
2023-04-15T13:35:23.737Z,95532.91
2023-04-15T13:37:51.375Z,95517.94
2023-04-15T13:40:18.798Z,95501.97
2023-04-15T13:42:47.011Z,95526.56
2023-04-15T13:45:16.127Z,95521.44
2023-04-15T13:47:43.641Z,95523.19
2023-04-15T13:50:11.743Z,95524.56
2023-04-15T13:52:39.393Z,95538.53
2023-04-15T13:55:19.339Z,95508.44
2023-04-15T13:57:48.248Z,95538.19
2023-04-15T14:00:17.732Z,95527.97
2023-04-15T14:02:45.820Z,95547.97
2023-04-15T14:05:13.337Z,95554.81
2023-04-15T14:07:41.286Z,95560.88
2023-04-15T14:10:09.617Z,95538.91
2023-04-15T14:12:37.124Z,95553.72
2023-04-15T14:15:05.204Z,95581.66
2023-04-15T14:17:34.539Z,95550.94
2023-04-15T14:20:02.124Z,95560.78
2023-04-15T14:22:29.703Z,95579.44
2023-04-15T14:24:57.201Z,95577.66
2023-04-15T14:27:24.656Z,95590.78
2023-04-15T14:29:53.410Z,95581.03
2023-04-15T14:32:20.968Z,95590.22
2023-04-15T14:34:49.808Z,95603.16
2023-04-15T14:37:17.254Z,95599.09
2023-04-15T14:39:44.667Z,95609.91
2023-04-15T14:42:12.126Z,95613.53
2023-04-15T14:44:39.642Z,95611.59
2023-04-15T14:47:07.165Z,95582.50
2023-04-15T14:49:34.627Z,95612.88
2023-04-15T14:52:04.206Z,95608.56
2023-04-15T14:54:34.741Z,95624.16
2023-04-15T14:57:02.662Z,95574.94
2023-04-15T14:59:30.379Z,95627.34
2023-04-15T15:01:58.013Z,95616.19
2023-04-15T15:04:25.866Z,95633.63
2023-04-15T15:06:53.396Z,95632.66
2023-04-15T15:09:23.766Z,95642.63
2023-04-15T15:11:51.650Z,95636.38
2023-04-15T15:14:21.661Z,95634.75
2023-04-15T15:16:49.632Z,95655.00
2023-04-15T15:19:17.162Z,95651.31
2023-04-15T15:21:44.591Z,95658.38
2023-04-15T15:24:12.031Z,95659.69
2023-04-15T15:26:41.020Z,95655.66
2023-04-15T15:29:08.448Z,95648.53
2023-04-15T15:31:36.272Z,95669.38
2023-04-15T15:34:05.521Z,95657.03
2023-04-15T15:36:33.012Z,95666.66
2023-04-15T15:39:00.565Z,95668.34
2023-04-15T15:41:27.996Z,95654.38
2023-04-15T15:43:56.917Z,95667.63
2023-04-15T15:46:24.946Z,95671.59
2023-04-15T15:48:52.431Z,95667.69
2023-04-15T15:51:19.918Z,95649.13
2023-04-15T15:53:47.450Z,95681.84
2023-04-15T15:56:14.929Z,95675.91
2023-04-15T15:58:43.780Z,95682.84
2023-04-15T16:01:12.818Z,95669.38
2023-04-15T16:03:40.736Z,95666.47
2023-04-15T16:06:08.367Z,95656.63
2023-04-15T16:08:35.928Z,95669.72
2023-04-15T16:11:03.413Z,95693.25
2023-04-15T16:13:30.922Z,95684.78
2023-04-15T16:15:58.426Z,95690.41
2023-04-15T16:18:35.447Z,95689.13
2023-04-15T16:21:03.021Z,95685.34
2023-04-15T16:23:30.839Z,95700.75
2023-04-15T16:25:58.360Z,95694.16
2023-04-15T16:28:27.131Z,95705.81
2023-04-15T16:30:55.476Z,95709.69
2023-04-15T16:33:22.961Z,95697.00
2023-04-15T16:35:51.837Z,95714.16
2023-04-15T16:38:19.275Z,95710.25
2023-04-15T16:40:46.755Z,95697.41
2023-04-15T16:43:14.939Z,95703.16
2023-04-15T16:45:51.202Z,95716.22
2023-04-15T16:48:19.197Z,95710.09
2023-04-15T16:50:46.984Z,95732.16
2023-04-15T16:53:16.500Z,95726.72
2023-04-15T16:55:44.021Z,95731.34
2023-04-15T16:58:11.515Z,95745.44
2023-04-15T17:00:39.014Z,95738.94
2023-04-15T17:03:07.027Z,95738.84
2023-04-15T17:05:34.687Z,95744.47
2023-04-15T17:08:02.240Z,95750.28
2023-04-15T17:10:31.553Z,95734.63
2023-04-15T17:12:59.744Z,95762.88
2023-04-15T17:15:27.649Z,95754.47
2023-04-15T17:17:55.648Z,95742.34
2023-04-15T17:20:23.242Z,95766.66
2023-04-15T17:22:50.937Z,95772.41
2023-04-15T17:25:19.324Z,95766.19
2023-04-15T17:27:48.143Z,95767.19
2023-04-15T17:30:15.613Z,95755.09
2023-04-15T17:32:43.192Z,95780.75
2023-04-15T17:35:11.204Z,95780.06
2023-04-15T17:37:38.924Z,95784.44
2023-04-15T17:40:17.045Z,95759.19
2023-04-15T17:42:44.822Z,95786.78
2023-04-15T17:45:13.815Z,95791.44
2023-04-15T17:47:41.467Z,95788.75
2023-04-15T17:50:09.872Z,95792.91
2023-04-15T17:52:37.336Z,95791.13
2023-04-15T17:55:05.195Z,95794.19
2023-04-15T17:57:32.756Z,95779.22
2023-04-15T18:00:00.304Z,95786.50
2023-04-15T18:02:29.349Z,95785.25
2023-04-15T18:04:57.210Z,95801.53
2023-04-15T18:07:24.883Z,95813.59
2023-04-15T18:09:55.730Z,95820.59
2023-04-15T18:12:23.228Z,95797.81
2023-04-15T18:14:50.701Z,95825.25
2023-04-15T18:17:18.886Z,95797.69
2023-04-15T18:19:48.359Z,95789.50
2023-04-15T18:22:15.975Z,95797.53
2023-04-15T18:24:43.483Z,95851.72
2023-04-15T18:27:11.071Z,95841.78
2023-04-15T18:29:38.734Z,95840.34
2023-04-15T18:32:06.354Z,95863.31
2023-04-15T18:34:34.135Z,95863.41
2023-04-15T18:37:03.385Z,95875.81
2023-04-15T18:39:30.963Z,95878.31
2023-04-15T18:42:00.234Z,95885.41
2023-04-15T18:44:28.609Z,95859.25
2023-04-15T18:46:56.160Z,95871.75
2023-04-15T18:49:23.692Z,95882.81
2023-04-15T18:51:51.272Z,95896.88
2023-04-15T18:54:20.169Z,95902.41
2023-04-15T18:56:49.016Z,95890.09
2023-04-15T18:59:29.325Z,95877.38
2023-04-15T19:01:59.246Z,95901.47
2023-04-15T19:04:28.829Z,95903.75
2023-04-15T19:06:57.163Z,95919.16
2023-04-15T19:09:26.692Z,95876.34
2023-04-15T19:11:54.313Z,95875.78
2023-04-15T19:14:21.964Z,95918.97
2023-04-15T19:16:49.490Z,95928.88
2023-04-15T19:19:17.034Z,95932.47
2023-04-15T19:21:45.418Z,95908.00
2023-04-15T19:24:13.026Z,95907.66
2023-04-15T19:26:41.962Z,95934.38
2023-04-15T19:29:09.451Z,95933.69
2023-04-15T19:31:37.054Z,95933.31
2023-04-15T19:34:04.584Z,95951.50
2023-04-15T19:36:33.187Z,95936.84
2023-04-15T19:39:01.541Z,95955.31
2023-04-15T19:41:32.230Z,95966.41
2023-04-15T19:44:02.953Z,95915.34
2023-04-15T19:46:30.647Z,95964.03
2023-04-15T19:48:58.873Z,95962.47
2023-04-15T19:51:28.679Z,95969.44
2023-04-15T19:53:56.967Z,95974.84
2023-04-15T19:56:25.555Z,95936.00
2023-04-15T19:58:53.935Z,95936.94
2023-04-15T20:01:23.505Z,95968.56
2023-04-15T20:03:53.923Z,95959.84
2023-04-15T20:06:22.405Z,95973.38
2023-04-15T20:08:49.902Z,95933.97
2023-04-15T20:11:17.654Z,95970.16
2023-04-15T20:13:45.393Z,95985.25
2023-04-15T20:16:13.306Z,95970.66
2023-04-15T20:18:42.463Z,95995.38
2023-04-15T20:21:10.198Z,95999.63
2023-04-15T20:23:38.263Z,96004.94
2023-04-15T20:26:06.378Z,95988.00
2023-04-15T20:28:34.199Z,95984.19
2023-04-15T20:31:02.491Z,96008.75
2023-04-15T20:33:34.129Z,95979.38
2023-04-15T20:36:04.169Z,95962.44
2023-04-15T20:38:32.224Z,95970.63
2023-04-15T20:41:00.300Z,95993.94
2023-04-15T20:43:28.165Z,95993.75
2023-04-15T20:45:58.745Z,95989.34
2023-04-15T20:48:30.188Z,96012.34
2023-04-15T20:50:59.459Z,96014.63
2023-04-15T20:53:28.609Z,96018.66
2023-04-15T20:55:56.400Z,95998.63
2023-04-15T20:58:26.468Z,96013.28
2023-04-15T21:00:55.458Z,96031.53
2023-04-15T21:03:23.486Z,96025.78
2023-04-15T21:05:51.264Z,96012.28
2023-04-15T21:08:18.940Z,96002.13
2023-04-15T21:10:47.945Z,96008.84
2023-04-15T21:13:20.571Z,96023.63
2023-04-15T21:15:50.159Z,96002.50
2023-04-15T21:18:18.147Z,96041.75
2023-04-15T21:20:46.512Z,96000.41
2023-04-15T21:23:14.304Z,96019.09
2023-04-15T21:25:42.030Z,96043.91
2023-04-15T21:28:11.650Z,96056.03
2023-04-15T21:30:39.141Z,96052.88
2023-04-15T21:33:06.993Z,96027.72
2023-04-15T21:35:34.589Z,96048.34
2023-04-15T21:38:02.233Z,96057.75
2023-04-15T21:40:29.931Z,96072.69
2023-04-15T21:42:58.084Z,96049.13
2023-04-15T21:45:27.686Z,96069.31
2023-04-15T21:48:00.773Z,96074.56
2023-04-15T21:50:37.326Z,96072.28
2023-04-15T21:53:05.754Z,96083.03
2023-04-15T21:55:33.190Z,96084.72
2023-04-15T21:58:00.962Z,96086.22
2023-04-15T22:00:30.054Z,96063.56
2023-04-15T22:02:57.774Z,96068.38
2023-04-15T22:05:26.358Z,96082.25
2023-04-15T22:07:53.938Z,96088.84
2023-04-15T22:10:21.789Z,96077.13
2023-04-15T22:12:49.510Z,96069.28
2023-04-15T22:15:17.683Z,96090.84
2023-04-15T22:17:47.051Z,96090.78
2023-04-15T22:20:14.891Z,96083.69
2023-04-15T22:22:44.352Z,96072.84
2023-04-15T22:25:12.767Z,96087.63
2023-04-15T22:27:40.371Z,96084.88
2023-04-15T22:30:09.103Z,96071.44
2023-04-15T22:32:36.792Z,96103.28
2023-04-15T22:35:08.394Z,96098.78
2023-04-15T22:37:36.317Z,96077.59
2023-04-15T22:40:04.324Z,96076.19
2023-04-15T22:42:32.653Z,96095.19
2023-04-15T22:45:00.844Z,96075.47
2023-04-15T22:47:28.340Z,96083.88
2023-04-15T22:49:55.945Z,96108.53
2023-04-15T22:52:30.612Z,96112.72
2023-04-15T22:54:58.872Z,96104.56
2023-04-15T22:57:27.975Z,96109.13
2023-04-15T22:59:56.012Z,96068.81
2023-04-15T23:02:23.694Z,96096.16
2023-04-15T23:04:51.356Z,96094.53
2023-04-15T23:07:18.853Z,96120.09
2023-04-15T23:09:47.701Z,96116.13
2023-04-15T23:12:15.160Z,96110.72
2023-04-15T23:14:42.684Z,96123.31
2023-04-15T23:17:10.390Z,96120.97
2023-04-15T23:19:38.166Z,96097.41
2023-04-15T23:22:06.938Z,96120.00
2023-04-15T23:24:34.513Z,96116.81
2023-04-15T23:27:03.642Z,96105.00
2023-04-15T23:29:31.806Z,96129.34
2023-04-15T23:31:59.409Z,96136.16
2023-04-15T23:34:27.048Z,96126.00
2023-04-15T23:36:54.576Z,96129.75
2023-04-15T23:39:22.077Z,96111.34
2023-04-15T23:41:49.582Z,96122.69
2023-04-15T23:44:18.455Z,96129.41
2023-04-15T23:46:46.264Z,96133.16
2023-04-15T23:49:13.767Z,96127.66
2023-04-15T23:51:42.030Z,96125.38
2023-04-15T23:54:09.592Z,96131.56
2023-04-15T23:56:37.502Z,96124.25
2023-04-15T23:59:04.989Z,96124.22
